Johan Hjort — LDGJ — position and weather

sailwx.info

Track history (hours):
 
Tides and Currents Weather Stations Pressure Air Temp Water Temp Dewpoint Dewpoint Depression Visibility Wind Speed Wind Dir Waves Ship Positions

Oceanographic research ship Johan Hjort (Norway)

Detailed information on ship capabilities available from University of Delaware's Ocean Information Center and ARCUS's ALIAS (Arctic Logistics Information and Support) project.

Last reported at 2020-Jul-03 18:00 UTC. Time now 2020-Jul-03 20:48 UTC.
Position N 57°52' E 004°44'.

MMSI: 257139000.

Date/timePositionNaut miles runAvg speedWind from/ knotsBaromVisibWave heightAir tempDewpointWater temp
2020-Jul-03 18:00N 57°52' E 004°44'13 8.6
2020-Jul-03 16:30N 57°52' E 005°08'4 9.1
2020-Jul-03 16:00N 57°52' E 005°17'4 8.2
2020-Jul-03 15:30N 57°51' E 005°24'2 2.1
2020-Jul-03 14:30N 57°52' E 005°20'3 6.2
2020-Jul-03 14:00N 57°52' E 005°26'4 8.4
2020-Jul-03 13:30N 57°52' E 005°34'10 3.3
2020-Jul-03 10:30N 57°51' E 005°53'1 2.9
2020-Jul-03 10:01N 57°51' E 005°55'4 7.4
2020-Jul-03 09:30N 57°49' E 006°00'510.1
2020-Jul-03 09:00N 57°44' E 005°60'510.0
2020-Jul-03 08:30N 57°39' E 005°60'6 3.1
2020-Jul-03 06:30N 57°33' E 005°58'2510.1
2020-Jul-03 04:00N 57°33' E 005°10'2 1.9
2020-Jul-03 03:00N 57°33' E 005°14'4 8.4
2020-Jul-03 02:29N 57°33' E 005°06'24 0.7
2020-Jul-01 15:46N 57°14' E 005°34'16 7.3
2020-Jul-01 13:30N 57°06' E 006°00'  
2020-Jun-29 06:41N 57°19' E 007°55'1310.5
2020-Jun-29 05:30N 57°24' E 007°34'1010.5
2020-Jun-29 04:30N 57°29' E 007°17'4110.3
2020-Jun-29 00:30N 57°47' E 006°08'1010.4
2020-Jun-28 23:30N 57°52' E 005°51'1010.4
2020-Jun-28 22:30N 57°57' E 005°33'510.2
2020-Jun-28 22:00N 57°59' E 005°25'510.2
2020-Jun-28 21:30N 58°02' E 005°16'30 9.9
2020-Jun-28 18:30N 58°15' E 004°26'22 5.4
2020-Jun-28 14:22N 58°27' E 003°50'3 2.8
2020-Jun-28 13:27N 58°25' E 003°54'5 3.1
2020-Jun-28 11:57N 58°29' E 003°49'3 0.6
2020-Jun-28 07:14N 58°30' E 003°54'19 8.4
2020-Jun-28 05:00N 58°47' E 004°07'22 8.9
2020-Jun-28 02:30N 59°07' E 004°26'9 9.1
2020-Jun-28 01:30N 59°16' E 004°32'24 9.5
2020-Jun-27 23:00N 59°38' E 004°47'5 9.2
2020-Jun-27 22:30N 59°43' E 004°50'25 8.4
2020-Jun-27 19:30N 60°06' E 005°11'510.5
2020-Jun-27 19:00N 60°11' E 005°11'13 5.0
2020-Jun-27 16:27N 60°24' E 005°14'0 0.0
2020-Jun-27 14:00N 60°24' E 005°14'0 0.2
2020-Jun-27 13:25N 60°24' E 005°14'2 0.6
2020-Jun-27 09:29N 60°24' E 005°19'0 0.0
2020-Jun-27 07:59N 60°24' E 005°19'0 0.0
2020-Jun-27 07:29N 60°24' E 005°19'0 0.0
2020-Jun-27 05:59N 60°24' E 005°19'0 0.0
2020-Jun-27 02:29N 60°24' E 005°19'0 0.0
2020-Jun-27 01:59N 60°24' E 005°19'0 0.0
2020-Jun-27 00:59N 60°24' E 005°19'0 0.0
2020-Jun-26 22:59N 60°24' E 005°19'0 0.0
2020-Jun-26 20:59N 60°24' E 005°19'0 0.0
2020-Jun-26 20:29N 60°24' E 005°19'0 0.0
2020-Jun-26 18:59N 60°24' E 005°19'0 0.0
2020-Jun-26 17:29N 60°24' E 005°19'0 0.0
2020-Jun-26 16:00N 60°24' E 005°19'1 0.5
2020-Jun-26 14:00N 60°25' E 005°19'0 0.0
2020-Jun-26 13:00N 60°25' E 005°19'0 0.0
2020-Jun-26 12:30N 60°25' E 005°19'0 0.0
2020-Jun-26 12:00N 60°25' E 005°19'0 0.0
2020-Jun-26 11:30N 60°25' E 005°19'0 0.0
2020-Jun-26 11:00N 60°25' E 005°19'1 0.3
2020-Jun-26 08:00N 60°24' E 005°19'0 0.0
2020-Jun-26 07:30N 60°24' E 005°19'0 0.0
2020-Jun-26 07:00N 60°24' E 005°19'0 0.0
2020-Jun-26 06:00N 60°24' E 005°19'0 0.0
2020-Jun-26 05:30N 60°24' E 005°19'0 0.0
2020-Jun-26 02:30N 60°24' E 005°19'0 0.0
2020-Jun-26 00:30N 60°24' E 005°19'0 0.0
2020-Jun-25 20:00N 60°24' E 005°19'0 0.0
2020-Jun-25 19:00N 60°24' E 005°19'0 0.0
2020-Jun-25 17:59N 60°24' E 005°19'0 0.0
2020-Jun-25 16:30N 60°24' E 005°19'18 8.8
2020-Jun-25 14:30N 60°36' E 004°53'1711.3
2020-Jun-25 13:00N 60°51' E 004°37'5 9.8
2020-Jun-25 12:30N 60°54' E 004°29'4 7.0
2020-Jun-25 12:00N 60°58' E 004°27'611.2
2020-Jun-25 11:30N 61°03' E 004°26'20 9.8
2020-Jun-25 09:30N 61°23' E 004°20'9 9.3
2020-Jun-25 08:30N 61°32' E 004°18'30 8.5
2020-Jun-25 05:00N 61°55' E 004°56'7 6.7
2020-Jun-25 04:00N 61°58' E 005°09'0 0.0
2020-Jun-25 03:00N 61°58' E 005°08'0 0.0
2020-Jun-25 02:00N 61°58' E 005°08'0 0.0
2020-Jun-25 01:30N 61°58' E 005°08'0 0.0
2020-Jun-25 00:00N 61°58' E 005°09'0 0.0
2020-Jun-24 21:00N 61°58' E 005°09'0 0.0
2020-Jun-24 18:30N 61°58' E 005°08'0 0.0
2020-Jun-24 15:30N 61°58' E 005°08'0 0.2
2020-Jun-24 14:00N 61°59' E 005°09'0 0.1
2020-Jun-24 06:49N 61°58' E 005°08'0 0.1
2020-Jun-24 05:40N 61°58' E 005°09'0 0.0
2020-Jun-24 03:49N 61°58' E 005°09'0 0.0
2020-Jun-24 02:37N 61°58' E 005°08'0 0.2
2020-Jun-24 02:28N 61°58' E 005°08'0 0.0
2020-Jun-24 00:58N 61°58' E 005°09'0 0.0
2020-Jun-23 21:55N 61°58' E 005°09'0 0.2
2020-Jun-23 21:28N 61°58' E 005°08'0 0.0
2020-Jun-23 18:28N 61°58' E 005°09'  
Track history (hours):
 
Tides and Currents Weather Stations Pressure Air Temp Water Temp Dewpoint Dewpoint Depression Visibility Wind Speed Wind Dir Waves Ship Positions

Oceanographic research ship Johan Hjort (Norway)

Detailed information on ship capabilities available from University of Delaware's Ocean Information Center and ARCUS's ALIAS (Arctic Logistics Information and Support) project.

Last reported at 2020-Jul-03 18:00 UTC. Time now 2020-Jul-03 20:48 UTC.
Position N 57°52' E 004°44'.

MMSI: 257139000.

Date/timePositionNaut miles runAvg speedWind from/ knotsBaromVisibWave heightAir tempDewpointWater temp
2020-Jul-03 18:00N 57°52' E 004°44'13 8.6
2020-Jul-03 16:30N 57°52' E 005°08'4 9.1
2020-Jul-03 16:00N 57°52' E 005°17'4 8.2
2020-Jul-03 15:30N 57°51' E 005°24'2 2.1
2020-Jul-03 14:30N 57°52' E 005°20'3 6.2
2020-Jul-03 14:00N 57°52' E 005°26'4 8.4
2020-Jul-03 13:30N 57°52' E 005°34'10 3.3
2020-Jul-03 10:30N 57°51' E 005°53'1 2.9
2020-Jul-03 10:01N 57°51' E 005°55'4 7.4
2020-Jul-03 09:30N 57°49' E 006°00'510.1
2020-Jul-03 09:00N 57°44' E 005°60'510.0
2020-Jul-03 08:30N 57°39' E 005°60'6 3.1
2020-Jul-03 06:30N 57°33' E 005°58'2510.1
2020-Jul-03 04:00N 57°33' E 005°10'2 1.9
2020-Jul-03 03:00N 57°33' E 005°14'4 8.4
2020-Jul-03 02:29N 57°33' E 005°06'24 0.7
2020-Jul-01 15:46N 57°14' E 005°34'16 7.3
2020-Jul-01 13:30N 57°06' E 006°00'  
2020-Jun-29 06:41N 57°19' E 007°55'1310.5
2020-Jun-29 05:30N 57°24' E 007°34'1010.5
2020-Jun-29 04:30N 57°29' E 007°17'4110.3
2020-Jun-29 00:30N 57°47' E 006°08'1010.4
2020-Jun-28 23:30N 57°52' E 005°51'1010.4
2020-Jun-28 22:30N 57°57' E 005°33'510.2
2020-Jun-28 22:00N 57°59' E 005°25'510.2
2020-Jun-28 21:30N 58°02' E 005°16'30 9.9
2020-Jun-28 18:30N 58°15' E 004°26'22 5.4
2020-Jun-28 14:22N 58°27' E 003°50'3 2.8
2020-Jun-28 13:27N 58°25' E 003°54'5 3.1
2020-Jun-28 11:57N 58°29' E 003°49'3 0.6
2020-Jun-28 07:14N 58°30' E 003°54'19 8.4
2020-Jun-28 05:00N 58°47' E 004°07'22 8.9
2020-Jun-28 02:30N 59°07' E 004°26'9 9.1
2020-Jun-28 01:30N 59°16' E 004°32'24 9.5
2020-Jun-27 23:00N 59°38' E 004°47'5 9.2
2020-Jun-27 22:30N 59°43' E 004°50'25 8.4
2020-Jun-27 19:30N 60°06' E 005°11'510.5
2020-Jun-27 19:00N 60°11' E 005°11'13 5.0
2020-Jun-27 16:27N 60°24' E 005°14'0 0.0
2020-Jun-27 14:00N 60°24' E 005°14'0 0.2
2020-Jun-27 13:25N 60°24' E 005°14'2 0.6
2020-Jun-27 09:29N 60°24' E 005°19'0 0.0
2020-Jun-27 07:59N 60°24' E 005°19'0 0.0
2020-Jun-27 07:29N 60°24' E 005°19'0 0.0
2020-Jun-27 05:59N 60°24' E 005°19'0 0.0
2020-Jun-27 02:29N 60°24' E 005°19'0 0.0
2020-Jun-27 01:59N 60°24' E 005°19'0 0.0
2020-Jun-27 00:59N 60°24' E 005°19'0 0.0
2020-Jun-26 22:59N 60°24' E 005°19'0 0.0
2020-Jun-26 20:59N 60°24' E 005°19'0 0.0
2020-Jun-26 20:29N 60°24' E 005°19'0 0.0
2020-Jun-26 18:59N 60°24' E 005°19'0 0.0
2020-Jun-26 17:29N 60°24' E 005°19'0 0.0
2020-Jun-26 16:00N 60°24' E 005°19'1 0.5
2020-Jun-26 14:00N 60°25' E 005°19'0 0.0
2020-Jun-26 13:00N 60°25' E 005°19'0 0.0
2020-Jun-26 12:30N 60°25' E 005°19'0 0.0
2020-Jun-26 12:00N 60°25' E 005°19'0 0.0
2020-Jun-26 11:30N 60°25' E 005°19'0 0.0
2020-Jun-26 11:00N 60°25' E 005°19'1 0.3
2020-Jun-26 08:00N 60°24' E 005°19'0 0.0
2020-Jun-26 07:30N 60°24' E 005°19'0 0.0
2020-Jun-26 07:00N 60°24' E 005°19'0 0.0
2020-Jun-26 06:00N 60°24' E 005°19'0 0.0
2020-Jun-26 05:30N 60°24' E 005°19'0 0.0
2020-Jun-26 02:30N 60°24' E 005°19'0 0.0
2020-Jun-26 00:30N 60°24' E 005°19'0 0.0
2020-Jun-25 20:00N 60°24' E 005°19'0 0.0
2020-Jun-25 19:00N 60°24' E 005°19'0 0.0
2020-Jun-25 17:59N 60°24' E 005°19'0 0.0
2020-Jun-25 16:30N 60°24' E 005°19'18 8.8
2020-Jun-25 14:30N 60°36' E 004°53'1711.3
2020-Jun-25 13:00N 60°51' E 004°37'5 9.8
2020-Jun-25 12:30N 60°54' E 004°29'4 7.0
2020-Jun-25 12:00N 60°58' E 004°27'611.2
2020-Jun-25 11:30N 61°03' E 004°26'20 9.8
2020-Jun-25 09:30N 61°23' E 004°20'9 9.3
2020-Jun-25 08:30N 61°32' E 004°18'30 8.5
2020-Jun-25 05:00N 61°55' E 004°56'7 6.7
2020-Jun-25 04:00N 61°58' E 005°09'0 0.0
2020-Jun-25 03:00N 61°58' E 005°08'0 0.0
2020-Jun-25 02:00N 61°58' E 005°08'0 0.0
2020-Jun-25 01:30N 61°58' E 005°08'0 0.0
2020-Jun-25 00:00N 61°58' E 005°09'0 0.0
2020-Jun-24 21:00N 61°58' E 005°09'0 0.0
2020-Jun-24 18:30N 61°58' E 005°08'0 0.0
2020-Jun-24 15:30N 61°58' E 005°08'0 0.2
2020-Jun-24 14:00N 61°59' E 005°09'0 0.1
2020-Jun-24 06:49N 61°58' E 005°08'0 0.1
2020-Jun-24 05:40N 61°58' E 005°09'0 0.0
2020-Jun-24 03:49N 61°58' E 005°09'0 0.0
2020-Jun-24 02:37N 61°58' E 005°08'0 0.2
2020-Jun-24 02:28N 61°58' E 005°08'0 0.0
2020-Jun-24 00:58N 61°58' E 005°09'0 0.0
2020-Jun-23 21:55N 61°58' E 005°09'0 0.2
2020-Jun-23 21:28N 61°58' E 005°08'0 0.0
2020-Jun-23 18:28N 61°58' E 005°09'  

Dump ship's entire track history